Time,TemperatureF,DewpointF,PressureIn,WindDirection,WindDirectionDegrees,WindSpeedMPH,WindSpeedGustMPH,Humidity,HourlyPrecipIn,Conditions,Clouds,dailyrainin,SoftwareType,DateUTC
2013-03-08 00:00:00,41.0,34.0,30.18,North,355,11.0,12.0,76,0.00,,---,0.00,VWS V14.01,2013-03-08 05:00:00,
2013-03-08 00:03:00,40.9,33.9,30.18,North,349,11.0,12.0,76,0.00,,---,0.00,VWS V14.01,2013-03-08 05:03:00,
2013-03-08 00:09:00,40.9,33.6,30.19,North,360,13.0,14.0,75,0.00,,---,0.00,VWS V14.01,2013-03-08 05:09:00,
2013-03-08 00:14:00,40.9,33.6,30.19,North,355,12.0,14.0,75,0.00,,---,0.00,VWS V14.01,2013-03-08 05:14:00,
2013-03-08 00:19:00,41.0,33.7,30.18,North,350,13.0,15.0,75,0.00,,---,0.00,VWS V14.01,2013-03-08 05:19:00,
2013-03-08 00:24:00,41.0,33.4,30.18,North,355,11.0,15.0,74,0.00,,---,0.00,VWS V14.01,2013-03-08 05:24:00,
2013-03-08 00:29:00,41.0,33.4,30.18,North,355,11.0,12.0,74,0.00,,---,0.00,VWS V14.01,2013-03-08 05:29:00,
2013-03-08 00:34:00,40.8,33.2,30.18,North,355,12.0,14.0,74,0.00,,---,0.00,VWS V14.01,2013-03-08 05:34:00,
2013-03-08 00:39:00,40.8,33.5,30.18,North,355,11.0,14.0,75,0.00,,---,0.00,VWS V14.01,2013-03-08 05:39:00,
2013-03-08 00:44:00,40.7,33.4,30.18,North,360,11.0,15.0,75,0.00,,---,0.00,VWS V14.01,2013-03-08 05:44:00,
2013-03-08 00:49:00,40.6,33.3,30.18,NNW,343,9.0,15.0,75,0.00,,---,0.00,VWS V14.01,2013-03-08 05:49:00,
2013-03-08 00:54:00,40.5,33.5,30.18,North,355,9.0,15.0,76,0.00,,---,0.00,VWS V14.01,2013-03-08 05:54:00,
2013-03-08 00:59:00,40.4,33.5,30.18,North,355,7.0,10.0,76,0.00,,---,0.00,VWS V14.01,2013-03-08 05:59:00,
2013-03-08 01:04:00,40.1,33.2,30.18,North,351,10.0,11.0,76,0.00,,---,0.00,VWS V14.01,2013-03-08 06:04:00,
2013-03-08 01:09:00,40.1,33.2,30.18,North,350,9.0,11.0,76,0.00,,---,0.00,VWS V14.01,2013-03-08 06:09:00,
2013-03-08 01:15:00,39.9,33.3,30.18,North,355,7.0,11.0,77,0.00,,---,0.00,VWS V14.01,2013-03-08 06:15:00,
2013-03-08 01:20:00,39.8,33.2,30.18,North,355,7.0,11.0,77,0.00,,---,0.00,VWS V14.01,2013-03-08 06:20:00,
2013-03-08 01:25:00,39.6,33.0,30.18,NNW,344,8.0,11.0,77,0.00,,---,0.00,VWS V14.01,2013-03-08 06:25:00,
2013-03-08 01:30:00,39.3,32.7,30.18,NNW,348,7.0,9.0,77,0.00,,---,0.00,VWS V14.01,2013-03-08 06:30:00,
2013-03-08 01:35:00,39.3,32.7,30.18,North,351,9.0,11.0,77,0.00,,---,0.00,VWS V14.01,2013-03-08 06:35:00,
2013-03-08 01:40:00,39.3,33.0,30.19,NNW,342,10.0,11.0,78,0.00,,---,0.00,VWS V14.01,2013-03-08 06:40:00,
2013-03-08 01:45:00,39.1,32.8,30.18,NNW,342,9.0,11.0,78,0.00,,---,0.00,VWS V14.01,2013-03-08 06:45:00,
2013-03-08 01:50:00,39.0,32.7,30.18,North,349,9.0,11.0,78,0.00,,---,0.00,VWS V14.01,2013-03-08 06:50:00,
2013-03-08 01:55:00,38.9,32.6,30.18,NNW,347,10.0,11.0,78,0.00,,---,0.00,VWS V14.01,2013-03-08 06:55:00,
2013-03-08 02:00:00,38.8,32.5,30.18,NNW,341,9.0,13.0,78,0.00,,---,0.00,VWS V14.01,2013-03-08 07:00:00,
2013-03-08 02:05:00,38.7,32.4,30.18,NNW,347,7.0,13.0,78,0.00,,---,0.00,VWS V14.01,2013-03-08 07:05:00,
2013-03-08 02:10:00,38.6,32.7,30.18,NNW,327,9.0,13.0,79,0.00,,---,0.00,VWS V14.01,2013-03-08 07:10:00,
2013-03-08 02:15:00,38.4,32.2,30.18,NNW,328,10.0,13.0,78,0.00,,---,0.00,VWS V14.01,2013-03-08 07:15:00,
2013-03-08 02:20:00,38.3,32.4,30.18,NW,325,9.0,13.0,79,0.00,,---,0.00,VWS V14.01,2013-03-08 07:20:00,
2013-03-08 02:26:00,38.2,32.3,30.18,NNW,338,10.0,13.0,79,0.00,,---,0.00,VWS V14.01,2013-03-08 07:26:00,
2013-03-08 02:31:00,38.1,32.2,30.18,NW,323,8.0,11.0,79,0.00,,---,0.00,VWS V14.01,2013-03-08 07:31:00,
2013-03-08 02:35:00,38.1,32.2,30.17,NW,318,7.0,11.0,79,0.00,,---,0.00,VWS V14.01,2013-03-08 07:35:00,
2013-03-08 02:41:00,38.1,32.2,30.17,NW,309,9.0,11.0,79,0.00,,---,0.00,VWS V14.01,2013-03-08 07:41:00,
2013-03-08 02:46:00,38.1,32.2,30.17,NW,313,8.0,11.0,79,0.00,,---,0.00,VWS V14.01,2013-03-08 07:46:00,
2013-03-08 02:51:00,38.0,32.1,30.17,NW,317,9.0,12.0,79,0.00,,---,0.00,VWS V14.01,2013-03-08 07:51:00,
2013-03-08 02:56:00,37.9,32.3,30.17,NW,323,10.0,12.0,80,0.00,,---,0.00,VWS V14.01,2013-03-08 07:56:00,
2013-03-08 03:01:00,37.7,32.1,30.17,NW,323,9.0,11.0,80,0.00,,---,0.00,VWS V14.01,2013-03-08 08:01:00,
2013-03-08 03:06:00,37.7,32.1,30.17,NW,317,7.0,12.0,80,0.00,,---,0.00,VWS V14.01,2013-03-08 08:06:00,
2013-03-08 03:11:00,37.7,32.1,30.17,NW,318,9.0,12.0,80,0.00,,---,0.00,VWS V14.01,2013-03-08 08:11:00,
2013-03-08 03:16:00,37.6,32.0,30.17,NW,311,10.0,12.0,80,0.00,,---,0.00,VWS V14.01,2013-03-08 08:16:00,
2013-03-08 03:22:00,37.5,31.9,30.16,NW,315,9.0,13.0,80,0.00,,---,0.00,VWS V14.01,2013-03-08 08:22:00,
2013-03-08 03:27:00,37.3,31.7,30.16,NW,311,10.0,13.0,80,0.00,,---,0.00,VWS V14.01,2013-03-08 08:27:00,
2013-03-08 03:32:00,37.3,31.7,30.16,NNW,327,12.0,12.0,80,0.00,,---,0.00,VWS V14.01,2013-03-08 08:32:00,
2013-03-08 03:37:00,37.3,31.7,30.16,NW,310,12.0,14.0,80,0.00,,---,0.00,VWS V14.01,2013-03-08 08:37:00,
2013-03-08 03:42:00,37.3,32.0,30.16,NW,320,12.0,14.0,81,0.00,,---,0.00,VWS V14.01,2013-03-08 08:42:00,
2013-03-08 03:47:00,37.3,32.0,30.16,NNW,339,10.0,14.0,81,0.00,,---,0.00,VWS V14.01,2013-03-08 08:47:00,
2013-03-08 03:52:00,37.0,31.4,30.16,NW,324,12.0,14.0,80,0.00,,---,0.00,VWS V14.01,2013-03-08 08:52:00,
2013-03-08 03:57:00,37.0,31.4,30.16,NNW,335,12.0,14.0,80,0.00,,---,0.00,VWS V14.01,2013-03-08 08:57:00,
2013-03-08 04:02:00,37.1,31.8,30.16,NNW,333,10.0,13.0,81,0.00,,---,0.00,VWS V14.01,2013-03-08 09:02:00,
2013-03-08 04:07:00,37.0,31.7,30.16,NW,314,10.0,14.0,81,0.00,,---,0.00,VWS V14.01,2013-03-08 09:07:00,
2013-03-08 04:12:00,36.9,31.6,30.17,NW,325,11.0,14.0,81,0.00,,---,0.00,VWS V14.01,2013-03-08 09:12:00,
2013-03-08 04:17:00,36.8,31.5,30.17,NNW,331,7.0,14.0,81,0.00,,---,0.00,VWS V14.01,2013-03-08 09:17:00,
2013-03-08 04:22:00,36.8,31.5,30.17,NNW,331,10.0,14.0,81,0.00,,---,0.00,VWS V14.01,2013-03-08 09:22:00,
2013-03-08 04:27:00,36.7,31.4,30.17,NNW,341,10.0,14.0,81,0.00,,---,0.00,VWS V14.01,2013-03-08 09:27:00,
2013-03-08 04:33:00,36.6,31.3,30.17,NNW,332,12.0,15.0,81,0.00,,---,0.00,VWS V14.01,2013-03-08 09:33:00,
2013-03-08 04:38:00,36.8,31.8,30.18,NNW,331,12.0,15.0,82,0.00,,---,0.00,VWS V14.01,2013-03-08 09:38:00,
2013-03-08 04:43:00,36.6,31.3,30.18,NNW,333,11.0,15.0,81,0.00,,---,0.00,VWS V14.01,2013-03-08 09:43:00,
2013-03-08 04:48:00,36.7,31.4,30.18,NNW,332,15.0,16.0,81,0.00,,---,0.00,VWS V14.01,2013-03-08 09:48:00,
2013-03-08 04:53:00,36.8,31.5,30.18,NNW,333,12.0,17.0,81,0.00,,---,0.00,VWS V14.01,2013-03-08 09:53:00,
2013-03-08 04:58:00,36.7,31.4,30.18,NNW,346,13.0,16.0,81,0.00,,---,0.00,VWS V14.01,2013-03-08 09:58:00,
2013-03-08 05:03:00,36.7,31.4,30.18,NW,319,15.0,16.0,81,0.00,,---,0.00,VWS V14.01,2013-03-08 10:03:00,
2013-03-08 05:08:00,36.7,31.1,30.18,NNW,327,13.0,16.0,80,0.00,,---,0.00,VWS V14.01,2013-03-08 10:08:00,
2013-03-08 05:13:00,36.8,31.2,30.18,NNW,342,13.0,17.0,80,0.00,,---,0.00,VWS V14.01,2013-03-08 10:13:00,
2013-03-08 05:18:00,36.7,31.1,30.18,NNW,333,16.0,17.0,80,0.00,,---,0.00,VWS V14.01,2013-03-08 10:18:00,
2013-03-08 05:23:00,36.5,30.9,30.18,NW,323,11.0,17.0,80,0.00,,---,0.00,VWS V14.01,2013-03-08 10:23:00,
2013-03-08 05:28:00,36.5,30.9,30.18,NNW,338,13.0,14.0,80,0.00,,---,0.00,VWS V14.01,2013-03-08 10:28:00,
2013-03-08 05:33:00,36.4,30.8,30.19,NW,319,13.0,17.0,80,0.00,,---,0.00,VWS V14.01,2013-03-08 10:33:00,
2013-03-08 05:38:00,36.6,31.3,30.19,NW,321,13.0,17.0,81,0.00,,---,0.00,VWS V14.01,2013-03-08 10:38:00,
2013-03-08 05:43:00,36.3,30.7,30.19,NNW,328,15.0,17.0,80,0.00,,---,0.00,VWS V14.01,2013-03-08 10:43:00,
2013-03-08 05:49:00,36.3,31.0,30.19,NNW,332,12.0,17.0,81,0.00,,---,0.00,VWS V14.01,2013-03-08 10:49:00,
2013-03-08 05:54:00,36.0,30.4,30.19,NNW,331,12.0,17.0,80,0.00,,---,0.00,VWS V14.01,2013-03-08 10:54:00,
2013-03-08 05:59:00,35.9,30.3,30.19,NNW,347,12.0,15.0,80,0.00,,---,0.00,VWS V14.01,2013-03-08 10:59:00,
2013-03-08 06:04:00,36.0,30.8,30.19,North,355,14.0,16.0,81,0.00,,---,0.00,VWS V14.01,2013-03-08 11:04:00,
2013-03-08 06:09:00,36.0,30.8,30.19,NNW,336,14.0,18.0,81,0.00,,---,0.00,VWS V14.01,2013-03-08 11:09:00,
2013-03-08 06:14:00,35.9,30.3,30.19,NNW,333,13.0,18.0,80,0.00,,---,0.00,VWS V14.01,2013-03-08 11:14:00,
2013-03-08 06:19:00,35.8,30.5,30.19,NW,323,14.0,18.0,81,0.00,,---,0.00,VWS V14.01,2013-03-08 11:19:00,
2013-03-08 06:24:00,35.7,30.5,30.20,NW,318,15.0,18.0,81,0.00,,---,0.00,VWS V14.01,2013-03-08 11:24:00,
2013-03-08 06:29:00,35.6,30.4,30.20,NNW,330,15.0,17.0,81,0.00,,---,0.00,VWS V14.01,2013-03-08 11:29:00,
2013-03-08 06:34:00,35.7,30.5,30.20,NNW,333,14.0,18.0,81,0.00,,---,0.00,VWS V14.01,2013-03-08 11:34:00,
2013-03-08 06:39:00,35.6,30.4,30.20,NNW,338,13.0,18.0,81,0.00,,---,0.00,VWS V14.01,2013-03-08 11:39:00,
2013-03-08 06:44:00,35.7,30.5,30.20,NW,322,13.0,18.0,81,0.00,,---,0.00,VWS V14.01,2013-03-08 11:44:00,
2013-03-08 06:49:00,35.5,30.3,30.21,NNW,338,14.0,18.0,81,0.00,,---,0.00,VWS V14.01,2013-03-08 11:49:00,
2013-03-08 06:54:00,35.5,30.6,30.21,NNW,343,15.0,18.0,82,0.00,,---,0.00,VWS V14.01,2013-03-08 11:54:00,
2013-03-08 06:59:00,35.4,30.5,30.21,NNW,346,14.0,16.0,82,0.00,,---,0.00,VWS V14.01,2013-03-08 11:59:00,
2013-03-08 07:05:00,35.7,30.5,30.21,NNW,327,16.0,16.0,81,0.00,,---,0.00,VWS V14.01,2013-03-08 12:05:00,
2013-03-08 07:10:00,35.8,30.5,30.21,NNW,330,17.0,17.0,81,0.00,,---,0.00,VWS V14.01,2013-03-08 12:10:00,
2013-03-08 07:15:00,35.9,30.6,30.21,North,355,14.0,17.0,81,0.00,,---,0.00,VWS V14.01,2013-03-08 12:15:00,
2013-03-08 07:20:00,36.3,31.3,30.21,NNW,340,17.0,17.0,82,0.00,,---,0.00,VWS V14.01,2013-03-08 12:20:00,
2013-03-08 07:25:00,36.2,30.6,30.21,North,355,15.0,18.0,80,0.00,,---,0.00,VWS V14.01,2013-03-08 12:25:00,
2013-03-08 07:30:00,36.5,30.9,30.21,NNW,332,17.0,19.0,80,0.00,,---,0.00,VWS V14.01,2013-03-08 12:30:00,
2013-03-08 07:35:00,36.7,31.1,30.22,NNW,342,14.0,19.0,80,0.00,,---,0.00,VWS V14.01,2013-03-08 12:35:00,
2013-03-08 07:40:00,36.7,30.8,30.22,North,350,16.0,19.0,79,0.00,,---,0.00,VWS V14.01,2013-03-08 12:40:00,
2013-03-08 07:45:00,36.8,30.6,30.22,North,355,14.0,20.0,78,0.00,,---,0.00,VWS V14.01,2013-03-08 12:45:00,
2013-03-08 07:50:00,37.1,30.9,30.22,North,355,15.0,20.0,78,0.00,,---,0.00,VWS V14.01,2013-03-08 12:50:00,
2013-03-08 07:55:00,37.7,31.8,30.21,NNW,331,15.0,20.0,79,0.00,,---,0.00,VWS V14.01,2013-03-08 12:55:00,
2013-03-08 08:00:00,38.1,31.5,30.22,North,355,16.0,19.0,77,0.00,,---,0.00,VWS V14.01,2013-03-08 13:00:00,
2013-03-08 08:05:00,38.5,31.9,30.22,North,355,16.0,19.0,77,0.00,,---,0.00,VWS V14.01,2013-03-08 13:05:00,
2013-03-08 08:10:00,38.6,32.0,30.22,NNW,345,14.0,19.0,77,0.00,,---,0.00,VWS V14.01,2013-03-08 13:10:00,
2013-03-08 08:15:00,38.8,31.6,30.22,North,355,14.0,20.0,75,0.00,,---,0.00,VWS V14.01,2013-03-08 13:15:00,
2013-03-08 08:20:00,39.3,31.7,30.22,North,360,17.0,20.0,74,0.00,,---,0.00,VWS V14.01,2013-03-08 13:20:00,
2013-03-08 08:25:00,39.8,32.2,30.22,NNW,348,14.0,20.0,74,0.00,,---,0.00,VWS V14.01,2013-03-08 13:25:00,
2013-03-08 08:30:00,40.1,32.5,30.22,North,5,17.0,21.0,74,0.00,,---,0.00,VWS V14.01,2013-03-08 13:30:00,
2013-03-08 08:35:00,40.3,32.0,30.22,North,355,13.0,21.0,72,0.00,,---,0.00,VWS V14.01,2013-03-08 13:35:00,
2013-03-08 08:40:00,40.7,32.7,30.22,North,355,12.0,21.0,73,0.00,,---,0.00,VWS V14.01,2013-03-08 13:40:00,
2013-03-08 08:46:00,40.7,32.4,30.22,North,355,17.0,22.0,72,0.00,,---,0.00,VWS V14.01,2013-03-08 13:46:00,
2013-03-08 08:51:00,41.3,33.3,30.22,North,355,14.0,22.0,73,0.00,,---,0.00,VWS V14.01,2013-03-08 13:51:00,
2013-03-08 08:56:00,41.6,32.9,30.22,NNW,344,16.0,22.0,71,0.00,,---,0.00,VWS V14.01,2013-03-08 13:56:00,
2013-03-08 09:01:00,42.2,33.1,30.22,North,355,13.0,20.0,70,0.00,,---,0.00,VWS V14.01,2013-03-08 14:01:00,
2013-03-08 09:06:00,42.3,32.1,30.22,North,355,16.0,21.0,67,0.00,,---,0.00,VWS V14.01,2013-03-08 14:06:00,
2013-03-08 09:11:00,42.7,33.2,30.22,NNW,347,20.0,21.0,69,0.00,,---,0.00,VWS V14.01,2013-03-08 14:11:00,
2013-03-08 09:16:00,43.2,33.4,30.22,NNE,33,18.0,23.0,68,0.00,,---,0.00,VWS V14.01,2013-03-08 14:16:00,
2013-03-08 09:21:00,43.3,32.7,30.22,North,355,22.0,25.0,66,0.00,,---,0.00,VWS V14.01,2013-03-08 14:21:00,
2013-03-08 09:26:00,43.3,32.0,30.22,North,9,16.0,25.0,64,0.00,,---,0.00,VWS V14.01,2013-03-08 14:26:00,
2013-03-08 09:31:00,43.5,31.8,30.22,North,355,17.0,20.0,63,0.00,,---,0.00,VWS V14.01,2013-03-08 14:31:00,
2013-03-08 09:36:00,43.9,32.5,30.21,NNE,19,14.0,24.0,64,0.00,,---,0.00,VWS V14.01,2013-03-08 14:36:00,
2013-03-08 09:41:00,44.1,31.9,30.21,North,355,18.0,24.0,62,0.00,,---,0.00,VWS V14.01,2013-03-08 14:41:00,
2013-03-08 09:46:00,44.3,32.5,30.21,North,355,17.0,26.0,63,0.00,,---,0.00,VWS V14.01,2013-03-08 14:46:00,
2013-03-08 09:51:00,44.5,32.7,30.21,North,355,12.0,26.0,63,0.00,,---,0.00,VWS V14.01,2013-03-08 14:51:00,
2013-03-08 09:56:00,44.6,32.4,30.21,North,5,18.0,26.0,62,0.00,,---,0.00,VWS V14.01,2013-03-08 14:56:00,
2013-03-08 10:01:00,44.9,33.1,30.21,NNE,17,21.0,29.0,63,0.00,,---,0.00,VWS V14.01,2013-03-08 15:01:00,
2013-03-08 10:06:00,45.0,32.0,30.20,North,360,26.0,29.0,60,0.00,,---,0.00,VWS V14.01,2013-03-08 15:06:00,
2013-03-08 10:12:00,45.2,32.2,30.20,North,360,18.0,29.0,60,0.00,,---,0.00,VWS V14.01,2013-03-08 15:12:00,
2013-03-08 10:17:00,45.4,31.9,30.20,NNW,348,14.0,30.0,59,0.00,,---,0.00,VWS V14.01,2013-03-08 15:17:00,
2013-03-08 10:22:00,46.1,32.6,30.19,North,360,25.0,30.0,59,0.00,,---,0.00,VWS V14.01,2013-03-08 15:22:00,
2013-03-08 10:27:00,45.9,31.5,30.19,NNE,24,19.0,30.0,57,0.00,,---,0.00,VWS V14.01,2013-03-08 15:27:00,
2013-03-08 10:32:00,46.3,31.5,30.19,North,351,23.0,30.0,56,0.00,,---,0.00,VWS V14.01,2013-03-08 15:32:00,
2013-03-08 10:37:00,46.7,31.4,30.19,NNW,340,24.0,34.0,55,0.00,,---,0.00,VWS V14.01,2013-03-08 15:37:00,
2013-03-08 10:42:00,46.7,31.4,30.19,North,9,19.0,34.0,55,0.00,,---,0.00,VWS V14.01,2013-03-08 15:42:00,
2013-03-08 10:47:00,46.7,31.0,30.18,North,5,24.0,34.0,54,0.00,,---,0.00,VWS V14.01,2013-03-08 15:47:00,
2013-03-08 10:52:00,47.1,30.9,30.18,NNE,13,29.0,34.0,53,0.00,,---,0.00,VWS V14.01,2013-03-08 15:52:00,
2013-03-08 10:57:00,47.2,32.8,30.18,North,355,21.0,34.0,57,0.00,,---,0.00,VWS V14.01,2013-03-08 15:57:00,
2013-03-08 11:03:00,47.3,31.5,30.18,NNE,32,12.0,26.0,54,0.00,,---,0.00,VWS V14.01,2013-03-08 16:03:00,
2013-03-08 11:08:00,47.3,32.0,30.18,NNW,342,28.0,33.0,55,0.00,,---,0.00,VWS V14.01,2013-03-08 16:08:00,
2013-03-08 11:13:00,47.3,31.0,30.18,North,360,19.0,33.0,53,0.00,,---,0.00,VWS V14.01,2013-03-08 16:13:00,
2013-03-08 11:18:00,47.7,32.3,30.18,North,5,27.0,38.0,55,0.00,,---,0.00,VWS V14.01,2013-03-08 16:18:00,
2013-03-08 11:23:00,47.6,31.3,30.18,North,360,18.0,38.0,53,0.00,,---,0.00,VWS V14.01,2013-03-08 16:23:00,
2013-03-08 11:28:00,47.9,31.6,30.18,North,5,30.0,31.0,53,0.00,,---,0.00,VWS V14.01,2013-03-08 16:28:00,
2013-03-08 11:33:00,47.9,31.6,30.17,NNW,345,24.0,36.0,53,0.00,,---,0.00,VWS V14.01,2013-03-08 16:33:00,
2013-03-08 11:38:00,48.2,31.4,30.17,North,355,25.0,36.0,52,0.00,,---,0.00,VWS V14.01,2013-03-08 16:38:00,
2013-03-08 11:43:00,48.4,31.6,30.17,NNW,333,26.0,36.0,52,0.00,,---,0.00,VWS V14.01,2013-03-08 16:43:00,
2013-03-08 11:48:00,48.5,31.2,30.16,NNW,345,21.0,36.0,51,0.00,,---,0.00,VWS V14.01,2013-03-08 16:48:00,
2013-03-08 11:53:00,48.4,31.1,30.16,North,349,23.0,36.0,51,0.00,,---,0.00,VWS V14.01,2013-03-08 16:53:00,
2013-03-08 11:58:00,48.3,31.0,30.15,North,360,24.0,30.0,51,0.00,,---,0.00,VWS V14.01,2013-03-08 16:58:00,
2013-03-08 12:03:00,48.6,31.3,30.15,North,355,28.0,30.0,51,0.00,,---,0.00,VWS V14.01,2013-03-08 17:03:00,
2013-03-08 12:08:00,48.9,31.6,30.14,NNW,347,25.0,33.0,51,0.00,,---,0.00,VWS V14.01,2013-03-08 17:08:00,
2013-03-08 12:13:00,49.2,31.4,30.14,NW,315,24.0,33.0,50,0.00,,---,0.00,VWS V14.01,2013-03-08 17:13:00,
2013-03-08 12:18:00,49.4,31.6,30.14,North,350,20.0,33.0,50,0.00,,---,0.00,VWS V14.01,2013-03-08 17:18:00,
2013-03-08 12:23:00,49.5,31.6,30.14,North,5,25.0,33.0,50,0.00,,---,0.00,VWS V14.01,2013-03-08 17:23:00,
2013-03-08 12:29:00,49.7,32.3,30.14,NW,319,19.0,23.0,51,0.00,,---,0.00,VWS V14.01,2013-03-08 17:29:00,
2013-03-08 12:34:00,50.0,30.6,30.14,North,355,20.0,39.0,47,0.00,,---,0.00,VWS V14.01,2013-03-08 17:34:00,
2013-03-08 12:39:00,49.9,31.0,30.14,North,351,25.0,39.0,48,0.00,,---,0.00,VWS V14.01,2013-03-08 17:39:00,
2013-03-08 12:44:00,49.8,31.4,30.14,NNW,348,14.0,39.0,49,0.00,,---,0.00,VWS V14.01,2013-03-08 17:44:00,
2013-03-08 12:49:00,50.1,31.2,30.13,NNW,327,20.0,39.0,48,0.00,,---,0.00,VWS V14.01,2013-03-08 17:49:00,
2013-03-08 12:54:00,50.5,31.6,30.13,NNW,346,15.0,39.0,48,0.00,,---,0.00,VWS V14.01,2013-03-08 17:54:00,
2013-03-08 12:59:00,51.0,30.4,30.13,North,360,28.0,30.0,45,0.00,,---,0.00,VWS V14.01,2013-03-08 17:59:00,
2013-03-08 13:04:00,50.5,31.6,30.13,North,5,25.0,30.0,48,0.00,,---,0.00,VWS V14.01,2013-03-08 18:04:00,
2013-03-08 13:09:00,50.3,31.4,30.13,North,9,16.0,30.0,48,0.00,,---,0.00,VWS V14.01,2013-03-08 18:09:00,
2013-03-08 13:14:00,50.4,30.4,30.13,NNW,342,9.0,30.0,46,0.00,,---,0.00,VWS V14.01,2013-03-08 18:14:00,
2013-03-08 13:19:00,50.8,32.3,30.12,North,5,21.0,30.0,49,0.00,,---,0.00,VWS V14.01,2013-03-08 18:19:00,
2013-03-08 13:24:00,51.0,31.0,30.13,North,355,16.0,31.0,46,0.00,,---,0.00,VWS V14.01,2013-03-08 18:24:00,
2013-03-08 13:29:00,51.4,31.9,30.12,North,350,28.0,30.0,47,0.00,,---,0.00,VWS V14.01,2013-03-08 18:29:00,
2013-03-08 13:34:00,51.3,31.2,30.12,North,5,25.0,30.0,46,0.00,,---,0.00,VWS V14.01,2013-03-08 18:34:00,
2013-03-08 13:39:00,51.5,30.9,30.12,NNW,334,19.0,30.0,45,0.00,,---,0.00,VWS V14.01,2013-03-08 18:39:00,
2013-03-08 13:44:00,51.5,29.2,30.11,NNW,338,12.0,30.0,42,0.00,,---,0.00,VWS V14.01,2013-03-08 18:44:00,
2013-03-08 13:49:00,51.7,30.5,30.11,NW,319,25.0,33.0,44,0.00,,---,0.00,VWS V14.01,2013-03-08 18:49:00,
2013-03-08 13:54:00,51.8,30.6,30.11,North,355,21.0,33.0,44,0.00,,---,0.00,VWS V14.01,2013-03-08 18:54:00,
2013-03-08 13:59:00,51.8,30.6,30.10,North,355,19.0,23.0,44,0.00,,---,0.00,VWS V14.01,2013-03-08 18:59:00,
2013-03-08 14:05:00,52.3,30.5,30.11,North,355,19.0,28.0,43,0.00,,---,0.00,VWS V14.01,2013-03-08 19:05:00,
2013-03-08 14:10:00,52.3,30.5,30.11,North,355,20.0,29.0,43,0.00,,---,0.00,VWS V14.01,2013-03-08 19:10:00,
2013-03-08 14:15:00,52.3,31.0,30.11,North,355,18.0,29.0,44,0.00,,---,0.00,VWS V14.01,2013-03-08 19:15:00,
2013-03-08 14:20:00,52.5,30.7,30.10,North,355,28.0,35.0,43,0.00,,---,0.00,VWS V14.01,2013-03-08 19:20:00,
2013-03-08 14:25:00,52.5,31.2,30.10,North,355,23.0,35.0,44,0.00,,---,0.00,VWS V14.01,2013-03-08 19:25:00,
2013-03-08 14:30:00,52.8,30.4,30.10,NNW,348,22.0,33.0,42,0.00,,---,0.00,VWS V14.01,2013-03-08 19:30:00,
2013-03-08 14:35:00,52.9,31.6,30.10,NW,314,23.0,33.0,44,0.00,,---,0.00,VWS V14.01,2013-03-08 19:35:00,
2013-03-08 14:40:00,52.9,31.6,30.09,North,5,21.0,33.0,44,0.00,,---,0.00,VWS V14.01,2013-03-08 19:40:00,
2013-03-08 14:45:00,52.7,30.9,30.09,NNW,347,19.0,33.0,43,0.00,,---,0.00,VWS V14.01,2013-03-08 19:45:00,
2013-03-08 14:50:00,53.1,31.8,30.09,NNW,344,29.0,33.0,44,0.00,,---,0.00,VWS V14.01,2013-03-08 19:50:00,
2013-03-08 14:55:00,53.2,30.1,30.10,NNW,332,17.0,33.0,41,0.00,,---,0.00,VWS V14.01,2013-03-08 19:55:00,
2013-03-08 15:00:00,53.3,31.4,30.09,North,349,19.0,25.0,43,0.00,,---,0.00,VWS V14.01,2013-03-08 20:00:00,
2013-03-08 15:06:00,53.5,30.4,30.09,NNW,346,20.0,28.0,41,0.00,,---,0.00,VWS V14.01,2013-03-08 20:06:00,
2013-03-08 15:11:00,53.4,33.2,30.10,NNW,348,25.0,33.0,46,0.00,,---,0.00,VWS V14.01,2013-03-08 20:11:00,
2013-03-08 15:16:00,53.6,30.5,30.09,North,350,25.0,33.0,41,0.00,,---,0.00,VWS V14.01,2013-03-08 20:16:00,
2013-03-08 15:21:00,53.7,30.0,30.10,North,349,24.0,33.0,40,0.00,,---,0.00,VWS V14.01,2013-03-08 20:21:00,
2013-03-08 15:26:00,53.9,30.1,30.10,NNW,334,23.0,33.0,40,0.00,,---,0.00,VWS V14.01,2013-03-08 20:26:00,
2013-03-08 15:31:00,54.1,30.3,30.10,NNW,335,22.0,27.0,40,0.00,,---,0.00,VWS V14.01,2013-03-08 20:31:00,
2013-03-08 15:36:00,54.3,31.7,30.10,North,349,17.0,28.0,42,0.00,,---,0.00,VWS V14.01,2013-03-08 20:36:00,
2013-03-08 15:41:00,54.2,31.0,30.10,NNW,341,21.0,28.0,41,0.00,,---,0.00,VWS V14.01,2013-03-08 20:41:00,
2013-03-08 15:46:00,54.3,30.5,30.10,NNE,23,23.0,29.0,40,0.00,,---,0.00,VWS V14.01,2013-03-08 20:46:00,
2013-03-08 15:51:00,54.3,30.5,30.11,North,5,14.0,29.0,40,0.00,,---,0.00,VWS V14.01,2013-03-08 20:51:00,
2013-03-08 15:56:00,54.8,31.6,30.11,North,350,16.0,29.0,41,0.00,,---,0.00,VWS V14.01,2013-03-08 20:56:00,
2013-03-08 16:01:00,54.4,30.6,30.11,NNW,345,19.0,31.0,40,0.00,,---,0.00,VWS V14.01,2013-03-08 21:01:00,
2013-03-08 16:06:00,54.5,30.7,30.11,NNW,343,21.0,31.0,40,0.00,,---,0.00,VWS V14.01,2013-03-08 21:06:00,
2013-03-08 16:11:00,54.6,30.2,30.11,NNW,337,25.0,32.0,39,0.00,,---,0.00,VWS V14.01,2013-03-08 21:11:00,
2013-03-08 16:17:00,54.6,30.2,30.11,NNW,338,22.0,32.0,39,0.00,,---,0.00,VWS V14.01,2013-03-08 21:17:00,
2013-03-08 16:22:00,54.8,31.0,30.11,North,355,16.0,32.0,40,0.00,,---,0.00,VWS V14.01,2013-03-08 21:22:00,
2013-03-08 16:27:00,55.0,31.8,30.11,NNW,329,24.0,32.0,41,0.00,,---,0.00,VWS V14.01,2013-03-08 21:27:00,
2013-03-08 16:32:00,54.8,31.6,30.11,NW,321,20.0,29.0,41,0.00,,---,0.00,VWS V14.01,2013-03-08 21:32:00,
2013-03-08 16:37:00,54.9,32.3,30.11,NNW,333,20.0,29.0,42,0.00,,---,0.00,VWS V14.01,2013-03-08 21:37:00,
2013-03-08 16:42:00,54.8,30.3,30.11,NNW,331,16.0,29.0,39,0.00,,---,0.00,VWS V14.01,2013-03-08 21:42:00,
2013-03-08 16:47:00,55.0,31.8,30.11,North,350,17.0,29.0,41,0.00,,---,0.00,VWS V14.01,2013-03-08 21:47:00,
2013-03-08 16:52:00,55.0,31.1,30.12,NNW,348,16.0,29.0,40,0.00,,---,0.00,VWS V14.01,2013-03-08 21:52:00,
2013-03-08 16:57:00,55.0,31.8,30.12,NNW,342,15.0,29.0,41,0.00,,---,0.00,VWS V14.01,2013-03-08 21:57:00,
2013-03-08 17:02:00,55.0,31.1,30.12,NNW,346,22.0,30.0,40,0.00,,---,0.00,VWS V14.01,2013-03-08 22:02:00,
2013-03-08 17:07:00,54.9,32.3,30.12,North,355,18.0,30.0,42,0.00,,---,0.00,VWS V14.01,2013-03-08 22:07:00,
2013-03-08 17:12:00,54.9,31.0,30.12,North,355,17.0,30.0,40,0.00,,---,0.00,VWS V14.01,2013-03-08 22:12:00,
2013-03-08 17:17:00,54.9,31.0,30.12,North,355,19.0,30.0,40,0.00,,---,0.00,VWS V14.01,2013-03-08 22:17:00,
2013-03-08 17:22:00,54.7,30.9,30.12,North,360,19.0,30.0,40,0.00,,---,0.00,VWS V14.01,2013-03-08 22:22:00,
2013-03-08 17:27:00,54.7,30.9,30.12,North,5,18.0,30.0,40,0.00,,---,0.00,VWS V14.01,2013-03-08 22:27:00,
2013-03-08 17:32:00,54.6,32.0,30.13,NNW,329,14.0,24.0,42,0.00,,---,0.00,VWS V14.01,2013-03-08 22:32:00,
2013-03-08 17:37:00,54.6,31.4,30.13,North,355,21.0,27.0,41,0.00,,---,0.00,VWS V14.01,2013-03-08 22:37:00,
2013-03-08 17:42:00,54.4,32.4,30.13,North,355,16.0,27.0,43,0.00,,---,0.00,VWS V14.01,2013-03-08 22:42:00,
2013-03-08 17:47:00,54.3,32.3,30.13,North,360,13.0,27.0,43,0.00,,---,0.00,VWS V14.01,2013-03-08 22:47:00,
2013-03-08 17:53:00,54.0,33.2,30.14,North,355,12.0,27.0,45,0.00,,---,0.00,VWS V14.01,2013-03-08 22:53:00,
2013-03-08 17:58:00,53.9,30.8,30.14,North,355,14.0,27.0,41,0.00,,---,0.00,VWS V14.01,2013-03-08 22:58:00,
2013-03-08 18:03:00,53.8,32.4,30.14,North,350,13.0,15.0,44,0.00,,---,0.00,VWS V14.01,2013-03-08 23:03:00,
2013-03-08 18:08:00,53.6,31.7,30.14,North,355,10.0,16.0,43,0.00,,---,0.00,VWS V14.01,2013-03-08 23:08:00,
2013-03-08 18:13:00,53.3,31.4,30.14,NNW,347,10.0,16.0,43,0.00,,---,0.00,VWS V14.01,2013-03-08 23:13:00,
2013-03-08 18:18:00,53.1,33.4,30.14,NNW,348,10.0,16.0,47,0.00,,---,0.00,VWS V14.01,2013-03-08 23:18:00,
2013-03-08 18:23:00,52.8,32.1,30.14,NNW,344,10.0,16.0,45,0.00,,---,0.00,VWS V14.01,2013-03-08 23:23:00,
2013-03-08 18:28:00,52.7,32.0,30.14,North,350,10.0,12.0,45,0.00,,---,0.00,VWS V14.01,2013-03-08 23:28:00,
2013-03-08 18:33:00,52.5,32.9,30.14,NNW,345,10.0,13.0,47,0.00,,---,0.00,VWS V14.01,2013-03-08 23:33:00,
2013-03-08 18:38:00,52.3,31.6,30.15,NNW,345,11.0,13.0,45,0.00,,---,0.00,VWS V14.01,2013-03-08 23:38:00,
2013-03-08 18:43:00,52.1,32.5,30.15,North,355,7.0,13.0,47,0.00,,---,0.00,VWS V14.01,2013-03-08 23:43:00,
2013-03-08 18:48:00,51.8,32.8,30.15,NNW,348,9.0,13.0,48,0.00,,---,0.00,VWS V14.01,2013-03-08 23:48:00,
2013-03-08 18:53:00,51.5,33.5,30.15,North,350,10.0,13.0,50,0.00,,---,0.00,VWS V14.01,2013-03-08 23:53:00,
2013-03-08 18:59:00,51.2,33.2,30.15,North,355,8.0,10.0,50,0.00,,---,0.00,VWS V14.01,2013-03-08 23:59:00,
2013-03-08 19:04:00,50.9,33.4,30.15,North,355,9.0,10.0,51,0.00,,---,0.00,VWS V14.01,2013-03-09 00:04:00,
2013-03-08 19:09:00,50.6,33.2,30.15,NNW,347,7.0,10.0,51,0.00,,---,0.00,VWS V14.01,2013-03-09 00:09:00,
2013-03-08 19:14:00,50.6,34.6,30.15,North,355,7.0,10.0,54,0.00,,---,0.00,VWS V14.01,2013-03-09 00:14:00,
2013-03-08 19:19:00,50.6,34.6,30.15,North,355,10.0,12.0,54,0.00,,---,0.00,VWS V14.01,2013-03-09 00:19:00,
2013-03-08 19:24:00,50.5,33.5,30.15,North,355,9.0,12.0,52,0.00,,---,0.00,VWS V14.01,2013-03-09 00:24:00,
2013-03-08 19:29:00,50.3,33.4,30.15,North,355,8.0,11.0,52,0.00,,---,0.00,VWS V14.01,2013-03-09 00:29:00,
2013-03-08 19:34:00,50.1,33.7,30.16,North,355,10.0,11.0,53,0.00,,---,0.00,VWS V14.01,2013-03-09 00:34:00,
2013-03-08 19:39:00,50.0,34.5,30.16,North,350,9.0,11.0,55,0.00,,---,0.00,VWS V14.01,2013-03-09 00:39:00,
2013-03-08 19:44:00,49.8,33.4,30.16,North,355,9.0,11.0,53,0.00,,---,0.00,VWS V14.01,2013-03-09 00:44:00,
2013-03-08 19:49:00,49.8,33.8,30.16,North,355,9.0,11.0,54,0.00,,---,0.00,VWS V14.01,2013-03-09 00:49:00,
2013-03-08 19:54:00,49.6,34.1,30.16,North,360,9.0,11.0,55,0.00,,---,0.00,VWS V14.01,2013-03-09 00:54:00,
2013-03-08 19:59:00,49.3,34.3,30.16,North,360,8.0,10.0,56,0.00,,---,0.00,VWS V14.01,2013-03-09 00:59:00,
2013-03-08 20:04:00,49.2,35.1,30.17,North,355,7.0,10.0,58,0.00,,---,0.00,VWS V14.01,2013-03-09 01:04:00,
2013-03-08 20:10:00,48.8,34.3,30.17,NNW,348,8.0,10.0,57,0.00,,---,0.00,VWS V14.01,2013-03-09 01:10:00,
2013-03-08 20:15:00,48.6,34.5,30.17,NNW,342,6.0,10.0,58,0.00,,---,0.00,VWS V14.01,2013-03-09 01:15:00,
2013-03-08 20:19:00,48.3,34.7,30.17,NNW,342,5.0,10.0,59,0.00,,---,0.00,VWS V14.01,2013-03-09 01:19:00,
2013-03-08 20:25:00,48.1,34.0,30.17,NNW,346,6.0,10.0,58,0.00,,---,0.00,VWS V14.01,2013-03-09 01:25:00,
2013-03-08 20:30:00,48.2,34.1,30.17,North,360,5.0,7.0,58,0.00,,---,0.00,VWS V14.01,2013-03-09 01:30:00,
2013-03-08 20:35:00,48.1,34.9,30.17,North,360,4.0,7.0,60,0.00,,---,0.00,VWS V14.01,2013-03-09 01:35:00,
2013-03-08 20:40:00,47.6,34.4,30.17,NNW,348,4.0,7.0,60,0.00,,---,0.00,VWS V14.01,2013-03-09 01:40:00,
2013-03-08 20:45:00,47.4,34.2,30.18,NNW,348,4.0,7.0,60,0.00,,---,0.00,VWS V14.01,2013-03-09 01:45:00,
2013-03-08 20:50:00,47.2,34.5,30.18,NNW,348,4.0,7.0,61,0.00,,---,0.00,VWS V14.01,2013-03-09 01:50:00,
2013-03-08 20:55:00,46.9,34.6,30.18,NNW,348,4.0,7.0,62,0.00,,---,0.00,VWS V14.01,2013-03-09 01:55:00,
2013-03-08 21:00:00,46.7,34.0,30.19,NNW,348,5.0,6.0,61,0.00,,---,0.00,VWS V14.01,2013-03-09 02:00:00,
2013-03-08 21:05:00,46.4,34.1,30.19,NNW,348,5.0,6.0,62,0.00,,---,0.00,VWS V14.01,2013-03-09 02:05:00,
2013-03-08 21:10:00,46.2,34.7,30.19,NNW,346,4.0,7.0,64,0.00,,---,0.00,VWS V14.01,2013-03-09 02:10:00,
2013-03-08 21:15:00,45.9,34.4,30.19,North,349,5.0,7.0,64,0.00,,---,0.00,VWS V14.01,2013-03-09 02:15:00,
2013-03-08 21:20:00,45.8,34.3,30.19,NNW,344,4.0,7.0,64,0.00,,---,0.00,VWS V14.01,2013-03-09 02:20:00,
2013-03-08 21:25:00,45.6,34.5,30.19,NNW,342,4.0,7.0,65,0.00,,---,0.00,VWS V14.01,2013-03-09 02:25:00,
2013-03-08 21:31:00,45.5,34.4,30.20,NNW,348,4.0,6.0,65,0.00,,---,0.00,VWS V14.01,2013-03-09 02:31:00,
2013-03-08 21:36:00,45.5,34.8,30.20,NNW,340,5.0,6.0,66,0.00,,---,0.00,VWS V14.01,2013-03-09 02:36:00,
2013-03-08 21:41:00,45.5,35.2,30.20,NNW,344,4.0,6.0,67,0.00,,---,0.00,VWS V14.01,2013-03-09 02:41:00,
2013-03-08 21:46:00,45.2,34.2,30.20,NNW,344,4.0,6.0,65,0.00,,---,0.00,VWS V14.01,2013-03-09 02:46:00,
2013-03-08 21:51:00,45.2,34.2,30.20,North,5,6.0,7.0,65,0.00,,---,0.00,VWS V14.01,2013-03-09 02:51:00,
2013-03-08 21:56:00,45.2,34.5,30.20,NNE,13,6.0,7.0,66,0.00,,---,0.00,VWS V14.01,2013-03-09 02:56:00,
2013-03-08 22:01:00,44.9,33.5,30.20,North,5,6.0,7.0,64,0.00,,---,0.00,VWS V14.01,2013-03-09 03:01:00,
2013-03-08 22:06:00,44.6,33.6,30.20,North,360,5.0,7.0,65,0.00,,---,0.00,VWS V14.01,2013-03-09 03:06:00,
2013-03-08 22:11:00,44.6,34.3,30.22,NNW,347,5.0,7.0,67,0.00,,---,0.00,VWS V14.01,2013-03-09 03:11:00,
2013-03-08 22:16:00,44.3,33.7,30.22,NNW,347,5.0,8.0,66,0.00,,---,0.00,VWS V14.01,2013-03-09 03:16:00,
2013-03-08 22:21:00,44.0,33.8,30.22,North,355,9.0,9.0,67,0.00,,---,0.00,VWS V14.01,2013-03-09 03:21:00,
2013-03-08 22:26:00,45.2,34.2,30.22,North,360,11.0,14.0,65,0.00,,---,0.00,VWS V14.01,2013-03-09 03:26:00,
2013-03-08 22:31:00,45.8,33.1,30.22,North,360,10.0,14.0,61,0.00,,---,0.00,VWS V14.01,2013-03-09 03:31:00,
2013-03-08 22:36:00,45.7,33.4,30.22,North,5,8.0,14.0,62,0.00,,---,0.00,VWS V14.01,2013-03-09 03:36:00,
2013-03-08 22:41:00,45.6,33.3,30.23,North,355,9.0,14.0,62,0.00,,---,0.00,VWS V14.01,2013-03-09 03:41:00,
2013-03-08 22:46:00,45.1,33.3,30.23,NNW,342,8.0,14.0,63,0.00,,---,0.00,VWS V14.01,2013-03-09 03:46:00,
2013-03-08 22:51:00,44.7,33.3,30.23,North,350,8.0,14.0,64,0.00,,---,0.00,VWS V14.01,2013-03-09 03:51:00,
2013-03-08 22:56:00,44.6,32.8,30.23,North,351,11.0,14.0,63,0.00,,---,0.00,VWS V14.01,2013-03-09 03:56:00,
2013-03-08 23:02:00,44.7,33.3,30.23,North,355,9.0,12.0,64,0.00,,---,0.00,VWS V14.01,2013-03-09 04:02:00,
2013-03-08 23:07:00,44.8,33.8,30.24,North,360,11.0,15.0,65,0.00,,---,0.00,VWS V14.01,2013-03-09 04:07:00,
2013-03-08 23:12:00,44.8,33.8,30.24,North,360,11.0,15.0,65,0.00,,---,0.00,VWS V14.01,2013-03-09 04:12:00,
2013-03-08 23:17:00,44.8,34.2,30.24,North,355,10.0,15.0,66,0.00,,---,0.00,VWS V14.01,2013-03-09 04:17:00,
2013-03-08 23:22:00,44.5,33.5,30.24,North,355,7.0,15.0,65,0.00,,---,0.00,VWS V14.01,2013-03-09 04:22:00,
2013-03-08 23:27:00,44.2,33.6,30.24,NNW,348,9.0,15.0,66,0.00,,---,0.00,VWS V14.01,2013-03-09 04:27:00,
2013-03-08 23:32:00,44.2,32.8,30.23,North,5,7.0,11.0,64,0.00,,---,0.00,VWS V14.01,2013-03-09 04:32:00,
2013-03-08 23:37:00,44.1,33.9,30.23,North,10,9.0,11.0,67,0.00,,---,0.00,VWS V14.01,2013-03-09 04:37:00,
2013-03-08 23:42:00,44.0,34.1,30.23,North,350,9.0,11.0,68,0.00,,---,0.00,VWS V14.01,2013-03-09 04:42:00,
2013-03-08 23:47:00,43.7,33.5,30.23,NNW,347,10.0,12.0,67,0.00,,---,0.00,VWS V14.01,2013-03-09 04:47:00,
2013-03-08 23:52:00,43.6,33.4,30.24,NNW,348,12.0,13.0,67,0.00,,---,0.00,VWS V14.01,2013-03-09 04:52:00,
2013-03-08 23:57:00,43.5,32.9,30.24,North,355,11.0,13.0,66,0.00,,---,0.00,VWS V14.01,2013-03-09 04:57:00,